Time;durP1;ratioP1;P1;durP2;ratioP2;P2;SDS_P1;SDS_P2;PMS_P1;PMS_P2;Temp;Humidity;BMP_temperature;BMP_pressure;BME280_temperature;BME280_humidity;BME280_pressure;Samples;Min_cycle;Max_cycle;Signal;HPM_P1;HPM_P2
2022/11/26 00:00:14;;;;;;;55.65;17.58;;;4.70;99.90;;;;;;5056330;28;20481;-65
2022/11/26 00:02:40;;;;;;;62.45;17.50;;;4.60;99.90;;;;;;5054338;28;20370;-66
2022/11/26 00:05:08;;;;;;;53.40;18.05;;;4.60;99.90;;;;;;4999769;28;20550;-66
2022/11/26 00:07:34;;;;;;;53.03;17.17;;;5.10;99.90;;;;;;5037225;28;20047;-66
2022/11/26 00:10:00;;;;;;;51.60;16.27;;;5.20;99.90;;;;;;5019908;28;20060;-66
2022/11/26 00:12:30;;;;;;;57.65;15.55;;;5.00;99.90;;;;;;5037816;28;20393;-65
2022/11/26 00:14:57;;;;;;;61.10;17.80;;;4.30;99.90;;;;;;5020485;28;20563;-66
2022/11/26 00:17:22;;;;;;;55.53;15.38;;;5.20;99.90;;;;;;5038299;28;20091;-65
2022/11/26 00:19:48;;;;;;;43.88;14.60;;;3.60;99.90;;;;;;5036136;28;20174;-69
2022/11/26 00:22:28;;;;;;;46.45;14.57;;;4.10;99.90;;;;;;5019996;28;20036;-65
2022/11/26 00:24:54;;;;;;;48.88;15.32;;;5.10;99.90;;;;;;5024307;28;20144;-66
2022/11/26 00:27:23;;;;;;;39.85;12.90;;;5.50;99.90;;;;;;5037334;28;20040;-66
2022/11/26 00:29:50;;;;;;;56.85;15.32;;;4.50;99.90;;;;;;5035703;28;20037;-64
2022/11/26 00:32:23;;;;;;;47.00;12.25;;;4.90;99.90;;;;;;5020446;28;20097;-65
2022/11/26 00:34:49;;;;;;;56.10;14.27;;;4.50;99.90;;;;;;5021125;28;20044;-65
2022/11/26 00:37:21;;;;;;;48.53;13.00;;;5.00;99.90;;;;;;5033369;28;20047;-65
2022/11/26 00:39:47;;;;;;;44.13;12.05;;;4.50;99.90;;;;;;5037747;28;20079;-65
2022/11/26 00:42:13;;;;;;;38.28;12.52;;;5.10;99.90;;;;;;5024894;28;20134;-66
2022/11/26 00:44:39;;;;;;;43.30;13.52;;;5.50;99.90;;;;;;5039326;28;20044;-64
2022/11/26 00:47:05;;;;;;;45.10;13.23;;;4.50;99.90;;;;;;5041632;28;20445;-66
2022/11/26 00:49:31;;;;;;;42.15;12.70;;;4.00;99.90;;;;;;5022900;28;20035;-65
2022/11/26 00:51:57;;;;;;;43.47;14.27;;;4.70;99.90;;;;;;5037555;28;20429;-65
2022/11/26 00:54:23;;;;;;;36.55;12.70;;;5.60;99.90;;;;;;5041620;28;20855;-65
2022/11/26 00:56:49;;;;;;;40.85;12.88;;;4.30;99.90;;;;;;5008480;28;20089;-65
2022/11/26 00:59:19;;;;;;;45.10;14.07;;;3.90;99.90;;;;;;5023305;28;20052;-65
2022/11/26 01:01:44;;;;;;;45.95;12.02;;;5.20;99.90;;;;;;5040643;28;20089;-65
2022/11/26 01:04:11;;;;;;;51.95;12.80;;;5.80;99.90;;;;;;5024719;28;20127;-65
2022/11/26 01:06:39;;;;;;;39.60;12.20;;;5.80;99.90;;;;;;5040124;28;20036;-66
2022/11/26 01:09:06;;;;;;;41.97;12.45;;;4.10;99.90;;;;;;5055482;28;20057;-65
2022/11/26 01:11:32;;;;;;;42.78;12.18;;;5.20;99.90;;;;;;5057965;28;20101;-66
2022/11/26 01:13:58;;;;;;;40.03;13.40;;;4.60;99.90;;;;;;5023952;28;20124;-65
2022/11/26 01:16:28;;;;;;;48.78;13.60;;;5.10;99.90;;;;;;5006904;28;20044;-64
2022/11/26 01:18:55;;;;;;;37.88;12.60;;;4.40;99.90;;;;;;5040866;28;20046;-64
2022/11/26 01:21:22;;;;;;;44.78;13.23;;;4.10;99.90;;;;;;5040786;28;20083;-65
2022/11/26 01:23:48;;;;;;;41.33;13.15;;;3.90;99.90;;;;;;5035955;28;20123;-65
2022/11/26 01:26:20;;;;;;;42.90;12.88;;;4.40;99.90;;;;;;5024351;28;20389;-65
2022/11/26 01:28:46;;;;;;;46.42;12.98;;;5.80;99.90;;;;;;5040070;28;20033;-65
2022/11/26 01:31:19;;;;;;;39.53;12.35;;;4.10;99.90;;;;;;5022520;28;20311;-65
2022/11/26 01:33:45;;;;;;;41.63;12.53;;;4.30;99.90;;;;;;5041018;28;20056;-65
2022/11/26 01:36:27;;;;;;;43.67;14.27;;;4.10;99.90;;;;;;5040079;28;20056;-65
2022/11/26 01:38:59;;;;;;;44.88;14.57;;;3.80;99.90;;;;;;5020978;28;20135;-65
2022/11/26 01:41:44;;;;;;;42.42;13.30;;;5.10;99.90;;;;;;5058844;28;20635;-65
2022/11/26 01:44:31;;;;;;;45.67;12.90;;;5.20;99.90;;;;;;5040223;28;20098;-64
2022/11/26 01:46:57;;;;;;;40.22;13.23;;;3.80;99.90;;;;;;5056303;28;20040;-65
2022/11/26 01:49:32;;;;;;;41.10;13.35;;;4.70;99.90;;;;;;5023474;28;20040;-65
2022/11/26 01:52:13;;;;;;;39.83;13.55;;;3.60;99.90;;;;;;5039085;28;20461;-64
2022/11/26 01:54:42;;;;;;;45.20;14.88;;;5.30;99.90;;;;;;5038518;28;20076;-65
2022/11/26 01:57:19;;;;;;;44.20;15.68;;;3.70;99.90;;;;;;5039191;28;20057;-65
2022/11/26 01:59:50;;;;;;;47.75;15.38;;;5.50;99.90;;;;;;5040738;28;20182;-64
2022/11/26 02:02:17;;;;;;;44.30;14.48;;;4.80;99.90;;;;;;5056303;28;20408;-65
2022/11/26 02:04:52;;;;;;;52.45;17.23;;;4.80;99.90;;;;;;5039049;28;20616;-65
2022/11/26 02:07:18;;;;;;;50.40;16.63;;;3.90;99.90;;;;;;5040226;28;20357;-64
2022/11/26 02:09:45;;;;;;;47.72;16.70;;;5.40;99.90;;;;;;5037082;28;20132;-66
2022/11/26 02:12:12;;;;;;;47.95;15.90;;;4.80;99.90;;;;;;5037456;28;20125;-65
2022/11/26 02:14:41;;;;;;;50.25;15.82;;;4.30;99.90;;;;;;5040090;28;20041;-65
2022/11/26 02:17:37;;;;;;;49.20;15.63;;;4.00;99.90;;;;;;5022965;28;20102;-65
2022/11/26 02:20:54;;;;;;;45.92;17.55;;;3.40;99.90;;;;;;5041930;28;20088;-64
2022/11/26 02:23:38;;;;;;;48.05;17.00;;;3.40;99.90;;;;;;4998262;28;20049;-63
2022/11/26 02:26:23;;;;;;;52.80;19.13;;;4.00;99.90;;;;;;5041925;28;20122;-64
2022/11/26 02:28:55;;;;;;;55.72;19.23;;;4.70;99.90;;;;;;5058509;28;20048;-65
2022/11/26 02:31:26;;;;;;;59.10;19.55;;;4.80;99.90;;;;;;5024593;28;20068;-63
2022/11/26 02:34:13;;;;;;;51.95;18.65;;;4.80;99.90;;;;;;5023825;28;20036;-64
2022/11/26 02:36:57;;;;;;;55.30;18.73;;;3.60;99.90;;;;;;5040325;28;20140;-64
2022/11/26 02:39:25;;;;;;;58.00;18.75;;;5.10;99.90;;;;;;5059127;28;20045;-63
2022/11/26 02:41:54;;;;;;;47.80;18.67;;;3.70;99.90;;;;;;5024709;28;20275;-65
2022/11/26 02:44:24;;;;;;;59.58;19.70;;;4.20;99.90;;;;;;5023180;28;20040;-64
2022/11/26 02:47:03;;;;;;;57.50;19.60;;;3.40;99.90;;;;;;5059260;28;20123;-63
2022/11/26 02:49:30;;;;;;;57.17;19.63;;;4.80;99.90;;;;;;5058353;28;20626;-64
2022/11/26 02:51:58;;;;;;;50.95;19.90;;;4.90;99.90;;;;;;5059809;28;20067;-63
2022/11/26 02:54:26;;;;;;;50.47;19.40;;;4.60;99.90;;;;;;5059388;28;20238;-64
2022/11/26 02:56:52;;;;;;;59.75;22.40;;;3.40;99.90;;;;;;5059453;28;20044;-64
2022/11/26 02:59:19;;;;;;;63.03;23.85;;;4.30;99.90;;;;;;5039643;28;20257;-64
2022/11/26 03:02:06;;;;;;;57.55;21.48;;;5.30;99.90;;;;;;5058957;28;20053;-64
2022/11/26 03:04:40;;;;;;;55.95;21.05;;;4.90;99.90;;;;;;5037530;28;20052;-65
2022/11/26 03:07:08;;;;;;;52.60;21.58;;;5.10;99.90;;;;;;5056755;28;20129;-66
2022/11/26 03:09:52;;;;;;;59.00;21.85;;;3.90;99.90;;;;;;5038456;28;20131;-65
2022/11/26 03:12:18;;;;;;;52.78;20.38;;;5.50;99.90;;;;;;5037089;28;20048;-65
2022/11/26 03:14:44;;;;;;;61.50;19.35;;;5.30;99.90;;;;;;5053898;28;20085;-65
2022/11/26 03:17:10;;;;;;;59.10;21.77;;;5.40;99.90;;;;;;5038205;28;20147;-66
2022/11/26 03:19:36;;;;;;;51.53;20.77;;;5.50;99.90;;;;;;5003570;28;20039;-65
2022/11/26 03:22:02;;;;;;;58.85;19.75;;;4.00;99.90;;;;;;5056513;28;20458;-66
2022/11/26 03:24:29;;;;;;;53.97;21.20;;;3.40;99.90;;;;;;5021634;28;20044;-65
2022/11/26 03:26:54;;;;;;;55.67;19.92;;;5.50;99.90;;;;;;5036480;28;20045;-66
2022/11/26 03:29:20;;;;;;;59.50;23.00;;;3.30;99.90;;;;;;5038089;28;20046;-65
2022/11/26 03:31:46;;;;;;;55.88;22.08;;;5.30;99.90;;;;;;5035428;28;20219;-65
2022/11/26 03:34:11;;;;;;;53.22;19.98;;;5.00;99.90;;;;;;5020283;28;20047;-65
2022/11/26 03:36:37;;;;;;;70.50;24.02;;;3.70;99.90;;;;;;5021713;28;20049;-65
2022/11/26 03:39:03;;;;;;;66.35;22.15;;;5.10;99.90;;;;;;5038527;28;20036;-65
2022/11/26 03:41:29;;;;;;;58.85;22.38;;;3.80;99.90;;;;;;5020012;28;20059;-65
2022/11/26 03:43:55;;;;;;;56.58;21.50;;;4.00;99.90;;;;;;4997377;28;20036;-63
2022/11/26 03:46:20;;;;;;;58.60;20.63;;;3.60;99.90;;;;;;5022395;28;20137;-63
2022/11/26 03:48:46;;;;;;;61.00;20.70;;;5.10;99.90;;;;;;5024117;28;20490;-63
2022/11/26 03:51:12;;;;;;;63.78;22.35;;;4.90;99.90;;;;;;5058283;28;20032;-64
2022/11/26 03:53:38;;;;;;;53.72;21.27;;;3.70;99.90;;;;;;5059499;28;20055;-63
2022/11/26 03:56:04;;;;;;;56.00;21.70;;;4.50;99.90;;;;;;5040648;28;20773;-63
2022/11/26 03:58:29;;;;;;;66.22;22.13;;;5.40;99.90;;;;;;5006970;28;20067;-64
2022/11/26 04:00:55;;;;;;;66.07;23.08;;;4.60;99.90;;;;;;5040580;28;20076;-64
2022/11/26 04:03:20;;;;;;;66.35;23.23;;;5.40;99.90;;;;;;5039394;28;20040;-64
2022/11/26 04:05:46;;;;;;;71.25;23.88;;;4.50;99.90;;;;;;5039357;28;20036;-64
2022/11/26 04:08:12;;;;;;;51.17;20.83;;;4.70;99.90;;;;;;5040473;28;20048;-65
2022/11/26 04:10:38;;;;;;;55.95;22.65;;;4.00;99.90;;;;;;5038887;28;20045;-65
2022/11/26 04:13:03;;;;;;;64.45;23.10;;;5.30;99.90;;;;;;5019624;28;20116;-64
2022/11/26 04:15:29;;;;;;;65.00;22.38;;;5.20;99.90;;;;;;5023521;28;20048;-64
2022/11/26 04:17:55;;;;;;;56.97;20.83;;;3.10;99.90;;;;;;5021727;28;20095;-64
2022/11/26 04:20:20;;;;;;;64.38;22.42;;;5.30;99.90;;;;;;5022574;28;20046;-65
2022/11/26 04:22:46;;;;;;;66.55;25.17;;;3.50;99.90;;;;;;5024608;28;20036;-64
2022/11/26 04:25:12;;;;;;;63.85;24.27;;;4.00;99.90;;;;;;5041654;28;20404;-65
2022/11/26 04:27:38;;;;;;;67.25;22.83;;;3.30;99.90;;;;;;5040733;28;20040;-65
2022/11/26 04:30:05;;;;;;;64.57;23.90;;;3.10;99.90;;;;;;5040471;28;20117;-65
2022/11/26 04:32:32;;;;;;;58.40;22.40;;;5.10;99.90;;;;;;5041236;28;20040;-65
2022/11/26 04:34:58;;;;;;;62.78;25.52;;;5.20;99.90;;;;;;5038692;28;20342;-65
2022/11/26 04:37:24;;;;;;;66.45;23.35;;;5.00;99.90;;;;;;5023617;28;20173;-65
2022/11/26 04:39:50;;;;;;;66.03;24.83;;;3.10;99.90;;;;;;5059592;28;20123;-64
2022/11/26 04:42:16;;;;;;;64.65;25.35;;;3.60;99.90;;;;;;5024353;28;20397;-64
2022/11/26 04:44:41;;;;;;;71.85;24.85;;;3.10;99.90;;;;;;5057403;28;20075;-65
2022/11/26 04:47:07;;;;;;;73.82;25.80;;;3.60;99.90;;;;;;5057724;28;20044;-65
2022/11/26 04:49:33;;;;;;;61.72;23.42;;;4.20;99.90;;;;;;5039217;28;20822;-65
2022/11/26 04:51:58;;;;;;;59.90;24.00;;;3.10;99.90;;;;;;5009762;28;20486;-64
2022/11/26 04:54:24;;;;;;;65.07;24.92;;;3.00;99.90;;;;;;5024776;28;20036;-64
2022/11/26 04:56:50;;;;;;;60.78;24.67;;;5.20;99.90;;;;;;5024125;28;20636;-63
2022/11/26 04:59:15;;;;;;;59.15;24.95;;;5.10;99.90;;;;;;5039614;28;20044;-64
2022/11/26 05:01:41;;;;;;;58.25;23.45;;;3.30;99.90;;;;;;5041118;28;20056;-65
2022/11/26 05:04:07;;;;;;;64.53;27.27;;;5.30;99.90;;;;;;5026614;28;20052;-65
2022/11/26 05:06:33;;;;;;;71.00;25.90;;;3.70;99.90;;;;;;5037191;28;20041;-65
2022/11/26 05:08:58;;;;;;;64.15;25.17;;;4.30;99.90;;;;;;5040542;28;20056;-64
2022/11/26 05:11:24;;;;;;;59.67;25.80;;;4.20;99.90;;;;;;5042794;28;20079;-65
2022/11/26 05:13:50;;;;;;;78.25;27.95;;;4.40;99.90;;;;;;5025953;28;20068;-65
2022/11/26 05:16:15;;;;;;;73.70;28.70;;;5.00;99.90;;;;;;5041776;28;20072;-63
2022/11/26 05:18:41;;;;;;;76.85;28.00;;;4.30;99.90;;;;;;5026956;28;20056;-65
2022/11/26 05:21:07;;;;;;;63.35;26.60;;;4.80;99.90;;;;;;5016719;28;20055;-64
2022/11/26 05:23:33;;;;;;;71.32;29.15;;;4.20;99.90;;;;;;5060349;28;20040;-63
2022/11/26 05:25:59;;;;;;;78.60;31.02;;;5.30;99.90;;;;;;5060239;28;20250;-65
2022/11/26 05:28:24;;;;;;;63.45;29.08;;;3.10;99.90;;;;;;5043795;28;20033;-64
2022/11/26 05:30:58;;;;;;;76.13;29.52;;;5.10;99.90;;;;;;5059531;28;20040;-67
2022/11/26 05:33:23;;;;;;;85.10;33.88;;;3.70;99.90;;;;;;5024182;28;20317;-64
2022/11/26 05:35:49;;;;;;;83.55;34.95;;;5.10;99.90;;;;;;5024766;28;20414;-65
2022/11/26 05:38:14;;;;;;;85.10;34.45;;;3.00;99.90;;;;;;5036186;28;20083;-65
2022/11/26 05:40:40;;;;;;;68.22;31.98;;;3.00;99.90;;;;;;5023511;28;20386;-64
2022/11/26 05:43:06;;;;;;;82.88;32.13;;;3.20;99.90;;;;;;5024217;28;20107;-65
2022/11/26 05:45:31;;;;;;;82.25;34.78;;;3.00;99.90;;;;;;5057128;28;20049;-64
2022/11/26 05:47:57;;;;;;;87.63;39.47;;;5.10;99.90;;;;;;5022497;28;20432;-65
2022/11/26 05:50:23;;;;;;;72.00;35.03;;;3.10;99.90;;;;;;5040387;28;21050;-65
2022/11/26 05:52:48;;;;;;;76.50;36.85;;;5.00;99.90;;;;;;5055057;28;20731;-65
2022/11/26 05:55:15;;;;;;;72.20;33.95;;;2.80;99.90;;;;;;5024615;28;20715;-65
2022/11/26 05:57:41;;;;;;;85.07;37.50;;;4.90;99.90;;;;;;5039977;28;20125;-64
2022/11/26 06:00:09;;;;;;;80.07;40.65;;;3.90;99.90;;;;;;5039875;28;20048;-65
2022/11/26 06:02:35;;;;;;;79.40;36.97;;;4.40;99.90;;;;;;5039297;28;20540;-67
2022/11/26 06:05:01;;;;;;;74.00;35.65;;;3.20;99.90;;;;;;5040279;28;20094;-64
2022/11/26 06:07:26;;;;;;;73.30;36.80;;;3.20;99.90;;;;;;5040293;28;20036;-64
2022/11/26 06:09:52;;;;;;;76.72;36.92;;;2.70;99.90;;;;;;5035285;28;20131;-64
2022/11/26 06:12:18;;;;;;;84.47;40.47;;;2.80;99.90;;;;;;5057164;28;20072;-64
2022/11/26 06:14:43;;;;;;;89.22;42.45;;;3.80;99.90;;;;;;5021996;28;20052;-64
2022/11/26 06:17:09;;;;;;;83.20;40.72;;;3.20;99.90;;;;;;5055903;28;20603;-65
2022/11/26 06:19:35;;;;;;;109.22;46.67;;;3.90;99.90;;;;;;5039842;28;20090;-66
2022/11/26 06:22:00;;;;;;;78.07;39.22;;;3.70;99.90;;;;;;5038915;28;20306;-65
2022/11/26 06:24:26;;;;;;;88.45;42.00;;;4.50;99.90;;;;;;5036023;28;20323;-63
2022/11/26 06:26:52;;;;;;;91.10;43.85;;;2.80;99.90;;;;;;5038646;28;20290;-64
2022/11/26 06:29:17;;;;;;;76.15;39.88;;;3.00;99.90;;;;;;5057899;28;20040;-64
2022/11/26 06:31:43;;;;;;;73.20;38.97;;;2.80;99.90;;;;;;5037934;28;20086;-64
2022/11/26 06:34:09;;;;;;;96.93;43.40;;;4.50;99.90;;;;;;5039240;28;20071;-64
2022/11/26 06:36:34;;;;;;;90.03;43.22;;;4.80;99.90;;;;;;5039115;28;20484;-64
2022/11/26 06:39:00;;;;;;;97.97;45.65;;;4.80;99.90;;;;;;5006046;28;20040;-64
2022/11/26 06:41:25;;;;;;;88.55;46.17;;;4.70;99.90;;;;;;5054382;28;20041;-63
2022/11/26 06:43:51;;;;;;;93.95;42.67;;;4.80;99.90;;;;;;5057666;28;20422;-63
2022/11/26 06:46:17;;;;;;;88.72;41.22;;;4.40;99.90;;;;;;5022727;28;20407;-64
2022/11/26 06:48:43;;;;;;;95.47;42.70;;;3.60;99.90;;;;;;5055367;28;20486;-63
2022/11/26 06:51:14;;;;;;;86.38;42.92;;;4.20;99.90;;;;;;5039018;28;20048;-64
2022/11/26 06:53:40;;;;;;;91.68;44.03;;;5.00;99.90;;;;;;5038659;28;20048;-63
2022/11/26 06:56:11;;;;;;;80.78;39.10;;;4.80;99.90;;;;;;5018554;28;20093;-65
2022/11/26 06:58:37;;;;;;;85.20;41.55;;;3.00;99.90;;;;;;5039426;28;20455;-65
2022/11/26 07:01:11;;;;;;;81.05;39.85;;;4.70;99.90;;;;;;5038270;28;20247;-66
2022/11/26 07:03:38;;;;;;;82.05;41.85;;;4.20;99.90;;;;;;5037823;28;20099;-64
2022/11/26 07:06:14;;;;;;;84.30;40.30;;;4.60;99.90;;;;;;5041808;28;20049;-64
2022/11/26 07:08:40;;;;;;;85.60;42.20;;;3.00;99.90;;;;;;5041486;28;20566;-64
2022/11/26 07:11:05;;;;;;;76.10;38.53;;;4.70;99.90;;;;;;5055481;28;20044;-65
2022/11/26 07:13:31;;;;;;;81.50;38.67;;;3.40;99.90;;;;;;5052928;28;20040;-65
2022/11/26 07:16:01;;;;;;;88.55;39.08;;;4.80;99.90;;;;;;5021073;28;20127;-66
2022/11/26 07:18:27;;;;;;;85.47;43.28;;;3.70;99.90;;;;;;5036833;28;20051;-65
2022/11/26 07:20:53;;;;;;;75.97;35.22;;;2.90;99.90;;;;;;5020578;28;20048;-65
2022/11/26 07:23:19;;;;;;;77.65;38.10;;;3.40;99.90;;;;;;5037468;28;20079;-64
2022/11/26 07:25:44;;;;;;;85.47;39.10;;;3.90;99.90;;;;;;5035637;28;20077;-65
2022/11/26 07:28:11;;;;;;;102.63;43.60;;;4.20;99.90;;;;;;5035136;28;20062;-64
2022/11/26 07:30:36;;;;;;;79.95;42.05;;;4.70;99.90;;;;;;5040332;28;20382;-65
2022/11/26 07:33:02;;;;;;;95.10;46.88;;;4.20;99.90;;;;;;5022675;28;20207;-63
2022/11/26 07:35:28;;;;;;;79.85;39.10;;;4.70;99.90;;;;;;5040114;28;20040;-64
2022/11/26 07:37:53;;;;;;;100.70;47.28;;;3.90;99.90;;;;;;5025933;28;20044;-63
2022/11/26 07:40:19;;;;;;;85.97;43.85;;;4.50;99.90;;;;;;5025950;28;20044;-65
2022/11/26 07:42:45;;;;;;;102.00;47.28;;;4.30;99.90;;;;;;5023948;28;20413;-65
2022/11/26 07:45:11;;;;;;;90.82;43.35;;;3.70;99.90;;;;;;5021225;28;20133;-66
2022/11/26 07:47:36;;;;;;;86.20;42.40;;;3.80;99.90;;;;;;5039612;28;20128;-65
2022/11/26 07:50:02;;;;;;;93.28;47.60;;;5.00;99.90;;;;;;5042930;28;20406;-66
2022/11/26 07:52:28;;;;;;;112.93;50.65;;;3.40;99.90;;;;;;5029869;28;20485;-64
2022/11/26 07:54:54;;;;;;;106.60;48.42;;;2.70;99.90;;;;;;5064394;28;20293;-64
2022/11/26 07:57:21;;;;;;;85.63;47.60;;;5.00;99.90;;;;;;5028079;28;20052;-65
2022/11/26 07:59:47;;;;;;;101.13;50.42;;;4.10;99.90;;;;;;5027365;28;20749;-64
2022/11/26 08:02:14;;;;;;;113.57;52.65;;;4.90;99.90;;;;;;5029512;28;20044;-64
2022/11/26 08:04:40;;;;;;;95.07;47.90;;;4.40;99.90;;;;;;5062611;28;20441;-64
2022/11/26 08:07:06;;;;;;;106.60;50.20;;;3.70;99.90;;;;;;5046305;28;20070;-65
2022/11/26 08:09:31;;;;;;;95.10;50.10;;;2.90;99.90;;;;;;5025370;28;20064;-66
2022/11/26 08:11:57;;;;;;;103.95;50.30;;;3.90;99.90;;;;;;5023613;28;20533;-66
2022/11/26 08:14:23;;;;;;;127.70;55.83;;;4.90;99.90;;;;;;5023206;28;20044;-66
2022/11/26 08:16:49;;;;;;;124.28;54.35;;;4.90;99.90;;;;;;5038595;28;20045;-66
2022/11/26 08:19:16;;;;;;;170.48;66.13;;;4.90;99.90;;;;;;5023886;28;20052;-65
2022/11/26 08:21:42;;;;;;;155.00;60.90;;;5.10;99.90;;;;;;5038444;28;20040;-65
2022/11/26 08:24:13;;;;;;;168.98;67.13;;;2.80;99.90;;;;;;5022755;28;20114;-65
2022/11/26 08:26:39;;;;;;;175.93;70.35;;;3.20;99.90;;;;;;5038013;28;20099;-65
2022/11/26 08:29:06;;;;;;;163.60;67.80;;;5.00;99.90;;;;;;5036275;28;20064;-64
2022/11/26 08:31:33;;;;;;;147.82;54.78;;;5.00;99.90;;;;;;5036923;28;20178;-65
2022/11/26 08:33:59;;;;;;;183.88;63.70;;;5.20;99.90;;;;;;5038736;28;20392;-64
2022/11/26 08:36:29;;;;;;;182.70;65.32;;;5.20;99.90;;;;;;4996195;28;20385;-67
2022/11/26 08:38:55;;;;;;;238.00;73.38;;;3.60;99.90;;;;;;5012091;28;20072;-65
2022/11/26 08:41:21;;;;;;;247.93;71.53;;;4.30;99.90;;;;;;5039400;28;20087;-66
2022/11/26 08:43:47;;;;;;;279.73;78.97;;;3.40;99.90;;;;;;5009681;28;20060;-65
2022/11/26 08:46:13;;;;;;;283.50;76.15;;;4.00;99.90;;;;;;5023453;28;20049;-65
2022/11/26 08:48:38;;;;;;;239.82;75.95;;;5.40;99.90;;;;;;5039303;28;20040;-67
2022/11/26 08:51:10;;;;;;;236.05;78.00;;;3.70;99.90;;;;;;5040634;28;20552;-65
2022/11/26 08:53:37;;;;;;;217.52;74.78;;;3.90;99.90;;;;;;5040559;28;20056;-64
2022/11/26 08:56:07;;;;;;;169.50;66.97;;;5.70;99.90;;;;;;5042585;28;20087;-64
2022/11/26 08:58:34;;;;;;;169.02;70.47;;;5.80;99.90;;;;;;5041143;28;20060;-64
2022/11/26 09:01:08;;;;;;;145.32;65.30;;;3.90;99.90;;;;;;5025061;28;20457;-64
2022/11/26 09:03:34;;;;;;;118.18;56.47;;;5.40;99.90;;;;;;5023839;28;20057;-64
2022/11/26 09:06:01;;;;;;;122.28;58.85;;;5.80;99.90;;;;;;5039031;28;20072;-64
2022/11/26 09:08:27;;;;;;;112.75;56.83;;;5.80;99.90;;;;;;5022047;28;20402;-63
2022/11/26 09:10:54;;;;;;;97.75;51.95;;;6.30;99.90;;;;;;5022632;28;20136;-64
2022/11/26 09:13:20;;;;;;;99.97;53.65;;;6.30;99.90;;;;;;5039292;28;20098;-64
2022/11/26 09:15:48;;;;;;;87.63;48.58;;;4.50;99.90;;;;;;5005451;28;20473;-65
2022/11/26 09:18:14;;;;;;;79.20;46.17;;;5.20;99.90;;;;;;5039106;28;20077;-64
2022/11/26 09:20:39;;;;;;;86.38;47.40;;;6.40;99.90;;;;;;5004574;28;20088;-66
2022/11/26 09:23:05;;;;;;;69.50;43.33;;;4.70;99.90;;;;;;5037694;28;21062;-64
2022/11/26 09:25:31;;;;;;;63.25;41.25;;;4.90;99.90;;;;;;5022547;28;20049;-64
2022/11/26 09:27:59;;;;;;;68.07;39.30;;;6.10;99.90;;;;;;5039392;28;20101;-63
2022/11/26 09:30:25;;;;;;;69.25;41.60;;;6.20;99.90;;;;;;5020980;28;20474;-64
2022/11/26 09:32:51;;;;;;;64.28;38.25;;;6.60;99.90;;;;;;5022473;28;20062;-65
2022/11/26 09:35:16;;;;;;;61.13;35.10;;;5.90;99.90;;;;;;5036683;28;20088;-64
2022/11/26 09:37:42;;;;;;;60.95;35.90;;;5.60;99.90;;;;;;5037213;28;20044;-64
2022/11/26 09:40:15;;;;;;;66.15;34.92;;;7.10;99.90;;;;;;5021826;28;20577;-64
2022/11/26 09:42:59;;;;;;;57.33;32.60;;;6.60;99.90;;;;;;5022138;28;20048;-64
2022/11/26 09:45:41;;;;;;;47.72;30.27;;;5.30;99.90;;;;;;5038180;28;20049;-65
2022/11/26 09:48:14;;;;;;;52.30;29.98;;;5.80;99.90;;;;;;5038808;28;20049;-65
2022/11/26 09:50:40;;;;;;;;;;;5.80;99.90;;;;;;5036076;28;20069;-63
2022/11/26 09:53:18;;;;;;;46.03;26.40;;;5.40;99.90;;;;;;5020137;28;19921;-65
2022/11/26 09:55:50;;;;;;;52.83;27.95;;;6.30;99.90;;;;;;5038238;28;20080;-63
2022/11/26 09:58:36;;;;;;;36.95;22.13;;;6.10;99.90;;;;;;5021777;28;20056;-65
2022/11/26 10:01:04;;;;;;;38.78;22.83;;;7.90;99.90;;;;;;5020034;28;20044;-65
2022/11/26 10:03:33;;;;;;;34.08;21.05;;;6.60;99.90;;;;;;5038075;28;20124;-64
2022/11/26 10:06:08;;;;;;;30.23;18.42;;;7.30;99.90;;;;;;5020363;28;20060;-66
2022/11/26 10:08:53;;;;;;;31.17;16.38;;;7.20;99.90;;;;;;5037097;28;20071;-64
2022/11/26 10:11:18;;;;;;;32.47;17.73;;;8.50;99.90;;;;;;5037759;28;20057;-65
2022/11/26 10:14:02;;;;;;;32.90;17.10;;;7.60;99.90;;;;;;5037431;28;20044;-65
2022/11/26 10:16:49;;;;;;;23.67;12.52;;;7.30;99.90;;;;;;5037709;28;20132;-66
2022/11/26 10:19:35;;;;;;;27.52;13.10;;;7.70;99.90;;;;;;5038233;28;20119;-66
2022/11/26 10:22:12;;;;;;;21.50;11.75;;;8.60;99.90;;;;;;5019830;28;20115;-65
2022/11/26 10:24:41;;;;;;;31.40;15.73;;;9.00;99.90;;;;;;5018891;28;20081;-65
2022/11/26 10:27:15;;;;;;;22.20;12.05;;;8.40;99.90;;;;;;5021729;28;20590;-66
2022/11/26 10:29:43;;;;;;;26.23;13.98;;;8.80;99.90;;;;;;5021163;28;20056;-65
2022/11/26 10:32:40;;;;;;;26.55;14.23;;;8.80;99.90;;;;;;5002924;28;20055;-66
2022/11/26 10:35:12;;;;;;;31.83;14.35;;;8.10;99.90;;;;;;5038806;28;20049;-65
2022/11/26 10:37:38;;;;;;;25.92;13.77;;;8.40;99.90;;;;;;5036447;28;20063;-65
2022/11/26 10:40:26;;;;;;;24.73;14.40;;;8.20;99.90;;;;;;5034283;28;20045;-66
2022/11/26 10:43:04;;;;;;;30.38;14.10;;;8.90;99.90;;;;;;5037523;28;20044;-65
2022/11/26 10:45:42;;;;;;;28.02;14.18;;;8.60;99.90;;;;;;5037465;28;20712;-66
2022/11/26 10:48:20;;;;;;;27.95;13.38;;;9.30;99.90;;;;;;5019139;28;20179;-66
2022/11/26 10:51:03;;;;;;;24.77;11.23;;;9.20;99.90;;;;;;5037151;28;20055;-66
2022/11/26 10:53:48;;;;;;;30.17;14.23;;;8.40;99.90;;;;;;5035954;28;20045;-66
2022/11/26 10:56:19;;;;;;;26.77;13.48;;;8.40;99.90;;;;;;5035192;28;20049;-65
2022/11/26 10:58:46;;;;;;;27.60;15.15;;;8.80;99.90;;;;;;5038494;28;20339;-64
2022/11/26 11:01:14;;;;;;;34.42;14.38;;;8.10;99.90;;;;;;5037122;28;20044;-64
2022/11/26 11:03:47;;;;;;;31.30;14.55;;;7.80;99.90;;;;;;5035568;28;20116;-65
2022/11/26 11:06:19;;;;;;;31.77;14.38;;;7.80;99.90;;;;;;5020239;28;20128;-64
2022/11/26 11:08:47;;;;;;;35.17;14.95;;;7.70;99.90;;;;;;5037192;28;20645;-64
2022/11/26 11:11:28;;;;;;;28.08;12.63;;;7.80;99.90;;;;;;5053554;28;20052;-64
2022/11/26 11:13:55;;;;;;;30.60;13.52;;;8.60;99.90;;;;;;5040339;28;20407;-65
2022/11/26 11:16:36;;;;;;;32.00;14.27;;;8.20;99.90;;;;;;5040184;28;20056;-65
2022/11/26 11:19:10;;;;;;;29.10;14.18;;;8.70;99.90;;;;;;5037977;28;20052;-65
2022/11/26 11:21:37;;;;;;;32.05;15.52;;;7.60;99.90;;;;;;5040375;28;20102;-65
2022/11/26 11:24:17;;;;;;;37.30;16.15;;;8.70;99.90;;;;;;5039095;28;20526;-64
2022/11/26 11:26:48;;;;;;;31.80;14.75;;;8.60;99.90;;;;;;5035632;28;20135;-65
2022/11/26 11:29:34;;;;;;;37.10;15.38;;;8.70;99.90;;;;;;5039774;28;20056;-65
2022/11/26 11:32:03;;;;;;;35.13;15.35;;;7.90;99.90;;;;;;5039916;28;20046;-64
2022/11/26 11:34:32;;;;;;;36.88;15.88;;;8.90;99.90;;;;;;5021559;28;20486;-64
2022/11/26 11:36:59;;;;;;;37.03;16.98;;;7.90;99.90;;;;;;5039434;28;20527;-65
2022/11/26 11:39:30;;;;;;;38.35;15.88;;;8.70;99.90;;;;;;5056983;28;20467;-65
2022/11/26 11:41:58;;;;;;;35.70;16.52;;;8.90;99.90;;;;;;5036067;28;20040;-66
2022/11/26 11:44:24;;;;;;;36.80;17.65;;;8.00;99.90;;;;;;5023084;28;20084;-66
2022/11/26 11:47:20;;;;;;;39.08;18.00;;;8.00;99.90;;;;;;5058316;28;20144;-65
2022/11/26 11:49:58;;;;;;;46.83;18.65;;;8.00;99.90;;;;;;5055893;28;20033;-66
2022/11/26 11:52:50;;;;;;;36.13;18.45;;;9.00;99.90;;;;;;5040071;28;20075;-66
2022/11/26 11:55:53;;;;;;;38.10;18.08;;;8.10;99.90;;;;;;5040033;28;20087;-64
2022/11/26 11:58:27;;;;;;;37.67;19.67;;;9.00;99.90;;;;;;5037139;28;20059;-64
2022/11/26 12:01:11;;;;;;;43.20;21.67;;;8.30;99.90;;;;;;5057859;28;20048;-63
2022/11/26 12:03:43;;;;;;;51.40;28.83;;;8.00;99.90;;;;;;5022901;28;20048;-65
2022/11/26 12:06:18;;;;;;;48.38;26.17;;;8.10;99.90;;;;;;5038843;28;20395;-64
2022/11/26 12:09:05;;;;;;;49.95;25.63;;;8.80;99.90;;;;;;5040144;28;20056;-65
2022/11/26 12:11:47;;;;;;;44.75;24.23;;;8.00;99.90;;;;;;5039364;28;20525;-64
2022/11/26 12:14:31;;;;;;;40.25;22.58;;;8.50;99.90;;;;;;5054919;28;20045;-64
2022/11/26 12:17:03;;;;;;;47.05;24.70;;;8.70;99.90;;;;;;5039725;28;20406;-64
2022/11/26 12:19:49;;;;;;;47.00;26.80;;;8.60;99.90;;;;;;5038945;28;20331;-64
2022/11/26 12:22:22;;;;;;;62.90;39.08;;;7.90;99.90;;;;;;5021526;28;20040;-64
2022/11/26 12:25:16;;;;;;;52.60;27.67;;;8.10;99.90;;;;;;5056544;28;20044;-64
2022/11/26 12:28:11;;;;;;;45.22;26.38;;;8.10;99.90;;;;;;5035172;28;20052;-65
2022/11/26 12:31:01;;;;;;;52.95;27.88;;;8.90;99.90;;;;;;5052530;28;20036;-64
2022/11/26 12:33:40;;;;;;;51.92;27.15;;;8.90;99.90;;;;;;5054522;28;20192;-66
2022/11/26 12:36:28;;;;;;;49.50;26.88;;;9.00;99.90;;;;;;5036716;28;20339;-66
2022/11/26 12:38:59;;;;;;;56.17;28.08;;;9.00;99.90;;;;;;5040434;28;20076;-66
2022/11/26 12:41:40;;;;;;;47.42;24.77;;;9.00;99.90;;;;;;5023201;28;20136;-67
2022/11/26 12:44:27;;;;;;;46.60;27.23;;;8.20;99.90;;;;;;5037610;28;20044;-66
2022/11/26 12:47:25;;;;;;;43.30;23.80;;;8.80;99.90;;;;;;5037199;28;20545;-65
2022/11/26 12:50:20;;;;;;;54.50;28.70;;;8.20;99.90;;;;;;5056841;28;20052;-64